createdAt,value
2018-08-09T00:01:17.041Z,68.11
2018-08-09T00:03:45.448Z,68.96
2018-08-09T00:06:13.885Z,69.22
2018-08-09T00:08:42.309Z,68.64
2018-08-09T00:11:11.811Z,67.46
2018-08-09T00:13:40.199Z,68.95
2018-08-09T00:16:08.668Z,69.03
2018-08-09T00:18:37.448Z,69.53
2018-08-09T00:21:05.928Z,68.78
2018-08-09T00:23:34.333Z,68.69
2018-08-09T00:26:03.432Z,67.73
2018-08-09T00:28:31.851Z,67.41
2018-08-09T00:31:00.225Z,68.02
2018-08-09T00:33:28.619Z,67.53
2018-08-09T00:35:57.168Z,67.55
2018-08-09T00:38:25.545Z,67.26
2018-08-09T00:40:53.949Z,66.73
2018-08-09T00:43:22.338Z,67.19
2018-08-09T00:45:50.779Z,66.81
2018-08-09T00:48:19.279Z,66.12
2018-08-09T00:50:47.709Z,66.02
2018-08-09T00:53:17.537Z,66.54
2018-08-09T00:55:45.930Z,67.06
2018-08-09T00:58:14.340Z,67.64
2018-08-09T01:00:42.780Z,66.64
2018-08-09T01:03:11.464Z,65.91
2018-08-09T01:05:39.896Z,65.58
2018-08-09T01:08:08.380Z,66.72
2018-08-09T01:10:37.456Z,67.78
2018-08-09T01:13:05.876Z,67.96
2018-08-09T01:15:34.297Z,68.28
2018-08-09T01:18:02.756Z,67.21
2018-08-09T01:20:31.456Z,67.84
2018-08-09T01:22:59.901Z,67.32
2018-08-09T01:25:28.418Z,66.69
2018-08-09T01:27:57.811Z,66.65
2018-08-09T01:30:26.250Z,68.39
2018-08-09T01:32:54.705Z,68.36
2018-08-09T01:35:23.132Z,67.94
2018-08-09T01:37:51.553Z,68.33
2018-08-09T01:40:20.104Z,68.67
2018-08-09T01:42:59.769Z,68.03
2018-08-09T01:45:28.335Z,68.70
2018-08-09T01:47:56.733Z,68.43
2018-08-09T01:50:25.179Z,68.45
2018-08-09T01:52:53.584Z,69.64
2018-08-09T01:55:22.055Z,69.26
2018-08-09T01:57:50.431Z,69.70
2018-08-09T02:00:18.859Z,69.22
2018-08-09T02:02:47.263Z,69.09
2018-08-09T02:05:15.676Z,69.41
2018-08-09T02:07:44.064Z,68.99
2018-08-09T02:10:12.492Z,68.97
2018-08-09T02:12:40.892Z,69.15
2018-08-09T02:15:09.321Z,69.92
2018-08-09T02:17:38.130Z,69.17
2018-08-09T02:20:07.429Z,69.33
2018-08-09T02:22:35.859Z,69.54
2018-08-09T02:25:04.393Z,68.89
2018-08-09T02:27:32.773Z,68.02
2018-08-09T02:30:01.225Z,67.41
2018-08-09T02:32:29.613Z,66.96
2018-08-09T02:34:58.033Z,67.14
2018-08-09T02:37:26.452Z,67.38
2018-08-09T02:39:54.902Z,67.69
2018-08-09T02:42:23.373Z,67.50
2018-08-09T02:44:51.809Z,67.71
2018-08-09T02:47:20.221Z,67.56
2018-08-09T02:49:48.677Z,68.79
2018-08-09T02:52:17.096Z,70.43
2018-08-09T02:54:45.561Z,68.53
2018-08-09T02:57:13.977Z,67.20
2018-08-09T02:59:42.489Z,68.70
2018-08-09T03:02:10.977Z,69.34
2018-08-09T03:04:39.408Z,68.66
2018-08-09T03:07:08.283Z,68.96
2018-08-09T03:09:36.677Z,68.88
2018-08-09T03:12:05.116Z,68.23
2018-08-09T03:14:33.484Z,67.44
2018-08-09T03:17:02.151Z,67.09
2018-08-09T03:19:30.571Z,68.21
2018-08-09T03:21:58.930Z,68.61
2018-08-09T03:24:27.365Z,67.88
2018-08-09T03:26:55.646Z,67.59
2018-08-09T03:29:24.068Z,68.10
2018-08-09T03:31:52.457Z,67.81
2018-08-09T03:34:20.867Z,67.38
2018-08-09T03:36:49.304Z,67.71
2018-08-09T03:39:17.704Z,67.60
2018-08-09T03:41:46.160Z,67.55
2018-08-09T03:44:14.557Z,66.90
2018-08-09T03:46:42.984Z,66.67
2018-08-09T03:49:11.431Z,65.45
2018-08-09T03:51:39.830Z,65.57
2018-08-09T03:54:08.224Z,64.85
2018-08-09T03:56:36.608Z,64.23
2018-08-09T03:59:05.028Z,66.49
2018-08-09T04:01:33.492Z,65.69
2018-08-09T04:04:01.906Z,66.08
2018-08-09T04:06:30.303Z,67.23
2018-08-09T04:08:58.696Z,67.62
2018-08-09T04:11:27.127Z,67.19
2018-08-09T04:13:55.516Z,68.14
2018-08-09T04:16:23.921Z,67.46
2018-08-09T04:18:52.414Z,66.42
2018-08-09T04:21:20.821Z,67.06
2018-08-09T04:23:49.233Z,66.29
2018-08-09T04:26:17.632Z,67.52
2018-08-09T04:28:46.056Z,67.57
2018-08-09T04:31:15.225Z,66.87
2018-08-09T04:33:43.620Z,66.43
2018-08-09T04:36:12.038Z,66.90
2018-08-09T04:38:40.445Z,66.04
2018-08-09T04:41:08.936Z,66.71
2018-08-09T04:43:37.380Z,65.44
2018-08-09T04:46:06.329Z,65.02
2018-08-09T04:48:34.699Z,65.75
2018-08-09T04:51:03.127Z,65.24
2018-08-09T04:53:31.580Z,64.95
2018-08-09T04:56:01.008Z,64.98
2018-08-09T04:58:29.898Z,64.85
2018-08-09T05:00:58.241Z,64.63
2018-08-09T05:03:26.661Z,64.68
2018-08-09T05:05:55.690Z,64.86
2018-08-09T05:08:24.104Z,64.44
2018-08-09T05:10:52.548Z,65.27
2018-08-09T05:13:21.061Z,64.72
2018-08-09T05:15:49.508Z,64.64
2018-08-09T05:18:17.927Z,65.73
2018-08-09T05:20:46.322Z,65.40
2018-08-09T05:23:14.756Z,66.85
2018-08-09T05:25:43.336Z,67.23
2018-08-09T05:28:11.757Z,67.00
2018-08-09T05:30:40.137Z,67.05
2018-08-09T05:33:09.136Z,66.67
2018-08-09T05:35:37.585Z,66.03
2018-08-09T05:38:06.148Z,65.68
2018-08-09T05:40:34.652Z,66.51
2018-08-09T05:43:03.427Z,66.30
2018-08-09T05:45:31.816Z,65.73
2018-08-09T05:48:00.239Z,65.96
2018-08-09T05:50:28.693Z,65.90
2018-08-09T05:52:57.700Z,66.04
2018-08-09T05:55:26.017Z,66.22
2018-08-09T05:57:54.460Z,66.41
2018-08-09T06:00:23.129Z,66.94
2018-08-09T06:02:51.748Z,66.43
2018-08-09T06:05:20.211Z,66.68
2018-08-09T06:07:49.265Z,66.73
2018-08-09T06:10:17.833Z,66.94
2018-08-09T06:12:46.233Z,67.10
2018-08-09T06:15:14.702Z,67.56
2018-08-09T06:17:43.933Z,67.00
2018-08-09T06:20:12.381Z,67.10
2018-08-09T06:22:40.869Z,67.10
2018-08-09T06:25:09.354Z,65.68
2018-08-09T06:27:37.834Z,65.20
2018-08-09T06:30:08.590Z,64.39
2018-08-09T06:32:37.121Z,63.95
2018-08-09T06:35:07.437Z,65.24
2018-08-09T06:37:36.099Z,64.51
2018-08-09T06:40:05.381Z,64.33
2018-08-09T06:42:33.781Z,64.54
2018-08-09T06:45:02.192Z,64.27
2018-08-09T06:47:30.593Z,63.40
2018-08-09T06:49:59.012Z,63.04
2018-08-09T06:52:27.469Z,63.92
2018-08-09T06:54:55.915Z,62.60
2018-08-09T06:57:24.381Z,62.50
2018-08-09T06:59:52.860Z,62.46
2018-08-09T07:02:21.263Z,62.16
2018-08-09T07:04:49.661Z,62.02
2018-08-09T07:07:18.095Z,63.29
2018-08-09T07:09:46.462Z,62.80
2018-08-09T07:12:15.724Z,62.24
2018-08-09T07:14:44.128Z,62.68
2018-08-09T07:17:12.527Z,62.36
2018-08-09T07:19:40.961Z,61.56
2018-08-09T07:22:09.381Z,63.28
2018-08-09T07:24:37.876Z,63.10
2018-08-09T07:27:06.341Z,63.05
2018-08-09T07:29:34.816Z,62.63
2018-08-09T07:32:03.231Z,61.76
2018-08-09T07:34:31.685Z,60.88
2018-08-09T07:37:00.072Z,61.22
2018-08-09T07:39:28.595Z,60.91
2018-08-09T07:41:57.031Z,61.43
2018-08-09T07:44:25.507Z,60.75
2018-08-09T07:46:54.214Z,59.91
2018-08-09T07:49:22.673Z,60.75
2018-08-09T07:51:51.180Z,60.42
2018-08-09T07:54:19.658Z,60.96
2018-08-09T07:56:48.334Z,61.22
2018-08-09T07:59:16.751Z,62.08
2018-08-09T08:01:45.170Z,61.59
2018-08-09T08:04:13.588Z,60.71
2018-08-09T08:06:42.031Z,60.73
2018-08-09T08:09:11.865Z,60.69
2018-08-09T08:11:40.281Z,59.43
2018-08-09T08:14:08.848Z,58.21
2018-08-09T08:16:37.314Z,58.15
2018-08-09T08:19:05.922Z,58.73
2018-08-09T08:21:34.369Z,58.44
2018-08-09T08:24:02.765Z,57.67
2018-08-09T08:26:31.178Z,58.27
2018-08-09T08:28:59.604Z,58.56
2018-08-09T08:31:28.031Z,57.83
2018-08-09T08:33:57.214Z,57.91
2018-08-09T08:36:25.649Z,57.50
2018-08-09T08:38:54.080Z,59.00
2018-08-09T08:41:22.548Z,58.24
2018-08-09T08:43:51.185Z,58.56
2018-08-09T08:46:19.607Z,59.14
2018-08-09T08:48:49.120Z,58.60
2018-08-09T08:51:17.569Z,58.54
2018-08-09T08:53:46.043Z,59.53
2018-08-09T08:56:15.039Z,58.76
2018-08-09T08:58:44.355Z,59.25
2018-08-09T09:01:12.923Z,59.62
2018-08-09T09:03:41.371Z,58.73
2018-08-09T09:06:09.791Z,59.78
2018-08-09T09:08:38.200Z,59.48
2018-08-09T09:11:06.732Z,60.12
2018-08-09T09:13:35.178Z,60.03
2018-08-09T09:16:03.654Z,60.00
2018-08-09T09:18:32.439Z,59.66
2018-08-09T09:21:00.904Z,59.72
2018-08-09T09:23:29.299Z,59.21
2018-08-09T09:25:57.720Z,59.80
2018-08-09T09:28:26.101Z,59.52
2018-08-09T09:30:54.509Z,60.23
2018-08-09T09:33:22.927Z,60.91
2018-08-09T09:35:51.381Z,60.50
2018-08-09T09:38:19.799Z,59.95
2018-08-09T09:40:48.168Z,59.30
2018-08-09T09:43:16.634Z,60.01
2018-08-09T09:45:45.061Z,60.38
2018-08-09T09:48:13.484Z,61.05
2018-08-09T09:50:42.963Z,59.16
2018-08-09T09:53:11.387Z,60.07
2018-08-09T09:55:39.840Z,60.00
2018-08-09T09:58:08.325Z,61.25
2018-08-09T10:00:41.973Z,60.86
2018-08-09T10:03:10.357Z,61.87
2018-08-09T10:05:38.719Z,61.54
2018-08-09T10:08:07.139Z,62.63
2018-08-09T10:10:35.490Z,62.16
2018-08-09T10:13:03.907Z,61.55
2018-08-09T10:15:32.345Z,62.31
2018-08-09T10:18:00.741Z,62.21
2018-08-09T10:20:29.133Z,60.89
2018-08-09T10:22:57.571Z,62.00
2018-08-09T10:25:26.064Z,61.76
2018-08-09T10:27:54.492Z,61.87
2018-08-09T10:30:22.909Z,60.25
2018-08-09T10:32:51.389Z,61.18
2018-08-09T10:35:19.787Z,61.15
2018-08-09T10:37:48.335Z,61.67
2018-08-09T10:40:17.681Z,61.68
2018-08-09T10:42:48.172Z,61.02
2018-08-09T10:45:17.239Z,60.59
2018-08-09T10:47:45.704Z,59.31
2018-08-09T10:50:14.156Z,58.91
2018-08-09T10:52:42.740Z,58.10
2018-08-09T10:55:11.170Z,57.99
2018-08-09T10:57:39.598Z,57.47
2018-08-09T11:00:10.531Z,57.46
2018-08-09T11:02:38.986Z,55.84
2018-08-09T11:05:08.062Z,55.43
2018-08-09T11:07:36.642Z,54.91
2018-08-09T11:10:05.798Z,54.71
2018-08-09T11:12:34.245Z,56.48
2018-08-09T11:15:04.371Z,54.99
2018-08-09T11:17:32.799Z,55.59
2018-08-09T11:20:01.195Z,54.81
2018-08-09T11:22:29.779Z,55.94
2018-08-09T11:24:58.232Z,55.31
2018-08-09T11:27:26.624Z,52.42
2018-08-09T11:29:55.244Z,52.19
2018-08-09T11:32:23.687Z,51.55
2018-08-09T11:34:52.109Z,51.07
2018-08-09T11:37:21.267Z,51.71
2018-08-09T11:39:49.729Z,52.65
2018-08-09T11:42:18.264Z,52.57
2018-08-09T11:44:46.684Z,51.63
2018-08-09T11:47:15.096Z,51.81
2018-08-09T11:49:43.601Z,52.08
2018-08-09T11:52:12.257Z,51.26
2018-08-09T11:54:40.673Z,53.06
2018-08-09T11:57:09.170Z,51.07
2018-08-09T11:59:37.616Z,51.75
2018-08-09T12:02:06.070Z,52.09
2018-08-09T12:04:34.516Z,52.66
2018-08-09T12:07:03.037Z,51.06
2018-08-09T12:09:31.481Z,52.29
2018-08-09T12:11:59.896Z,53.66
2018-08-09T12:14:28.312Z,53.92
2018-08-09T12:16:56.745Z,53.16
2018-08-09T12:19:25.209Z,52.88
2018-08-09T12:21:53.907Z,53.79
2018-08-09T12:24:22.436Z,51.82
2018-08-09T12:26:50.955Z,52.75
2018-08-09T12:29:19.372Z,52.23
2018-08-09T12:31:47.858Z,53.29
2018-08-09T12:34:16.284Z,52.56
2018-08-09T12:36:44.872Z,52.89
2018-08-09T12:39:13.845Z,54.72
2018-08-09T12:41:42.666Z,54.65
2018-08-09T12:44:11.456Z,55.28
2018-08-09T12:46:39.972Z,53.73
2018-08-09T12:49:08.579Z,52.32
2018-08-09T12:51:37.000Z,52.40
2018-08-09T12:54:06.475Z,52.59
2018-08-09T12:56:34.937Z,52.60
2018-08-09T12:59:03.471Z,51.91
2018-08-09T13:01:31.971Z,52.62
2018-08-09T13:04:00.429Z,55.28
2018-08-09T13:06:29.008Z,55.79
2018-08-09T13:08:57.511Z,55.69
2018-08-09T13:11:25.955Z,54.07
2018-08-09T13:13:55.300Z,54.20
2018-08-09T13:16:23.854Z,54.51
2018-08-09T13:18:52.820Z,53.77
2018-08-09T13:21:21.348Z,53.48
2018-08-09T13:23:49.749Z,54.12
2018-08-09T13:26:18.883Z,55.26
2018-08-09T13:28:47.318Z,54.21
2018-08-09T13:31:16.046Z,55.34
2018-08-09T13:33:44.579Z,57.34
2018-08-09T13:36:13.061Z,57.82
2018-08-09T13:38:41.524Z,55.70
2018-08-09T13:41:10.039Z,55.19
2018-08-09T13:43:38.556Z,53.81
2018-08-09T13:46:08.263Z,53.46
2018-08-09T13:48:36.714Z,54.48
2018-08-09T13:51:05.161Z,55.04
2018-08-09T13:53:33.563Z,55.12
2018-08-09T13:56:02.019Z,55.39
2018-08-09T13:58:30.580Z,56.43
2018-08-09T14:00:58.959Z,56.75
2018-08-09T14:03:27.517Z,58.41
2018-08-09T14:05:56.183Z,58.54
2018-08-09T14:08:24.645Z,58.13
2018-08-09T14:10:53.075Z,58.27
2018-08-09T14:13:21.556Z,58.60
2018-08-09T14:15:50.014Z,58.78
2018-08-09T14:18:18.526Z,59.03
2018-08-09T14:20:46.959Z,60.06
2018-08-09T14:23:15.550Z,59.33
2018-08-09T14:25:44.685Z,59.99
2018-08-09T14:28:13.239Z,60.79
2018-08-09T14:30:41.708Z,59.77
2018-08-09T14:33:10.224Z,60.14
2018-08-09T14:35:38.688Z,60.23
2018-08-09T14:38:07.374Z,60.04
2018-08-09T14:40:36.333Z,60.21
2018-08-09T14:43:05.129Z,60.45
2018-08-09T14:45:33.651Z,59.58
2018-08-09T14:48:02.352Z,59.55
2018-08-09T14:50:30.929Z,59.80
2018-08-09T14:52:59.438Z,58.57
2018-08-09T14:55:28.304Z,58.71
2018-08-09T14:57:56.736Z,57.49
2018-08-09T15:00:25.260Z,57.21
2018-08-09T15:02:53.804Z,58.63
2018-08-09T15:05:22.320Z,59.78
2018-08-09T15:07:50.863Z,59.51
2018-08-09T15:10:19.477Z,59.88
2018-08-09T15:12:48.092Z,58.83
2018-08-09T15:15:16.563Z,59.75
2018-08-09T15:17:45.093Z,59.86
2018-08-09T15:20:14.548Z,60.23
2018-08-09T15:22:43.194Z,60.96
2018-08-09T15:25:12.166Z,60.46
2018-08-09T15:27:40.685Z,61.86
2018-08-09T15:30:12.656Z,61.47
2018-08-09T15:32:41.148Z,61.74
2018-08-09T15:35:09.694Z,61.96
2018-08-09T15:37:38.377Z,62.23
2018-08-09T15:40:09.089Z,61.58
2018-08-09T15:42:38.439Z,61.36
2018-08-09T15:45:08.569Z,61.71
2018-08-09T15:47:38.437Z,61.93
2018-08-09T15:50:08.699Z,61.00
2018-08-09T15:52:37.171Z,61.72
2018-08-09T15:55:06.597Z,61.10
2018-08-09T15:57:35.384Z,61.33
2018-08-09T16:00:05.432Z,62.76
2018-08-09T16:02:33.884Z,62.27
2018-08-09T16:05:02.388Z,61.74
2018-08-09T16:07:30.802Z,62.38
2018-08-09T16:09:59.291Z,61.72
2018-08-09T16:12:27.706Z,62.74
2018-08-09T16:14:56.168Z,62.57
2018-08-09T16:17:24.675Z,62.59
2018-08-09T16:19:53.241Z,63.66
2018-08-09T16:22:21.688Z,64.09
2018-08-09T16:24:50.082Z,63.37
2018-08-09T16:27:18.564Z,64.25
2018-08-09T16:29:47.056Z,64.09
2018-08-09T16:32:15.580Z,64.47
2018-08-09T16:34:44.027Z,64.39
2018-08-09T16:37:12.501Z,64.04
2018-08-09T16:39:40.937Z,64.78
2018-08-09T16:42:09.422Z,64.63
2018-08-09T16:44:37.882Z,64.56
2018-08-09T16:47:06.373Z,64.01
2018-08-09T16:49:35.312Z,63.92
2018-08-09T16:52:04.877Z,63.38
2018-08-09T16:54:33.313Z,63.04
2018-08-09T16:57:01.808Z,63.50
2018-08-09T16:59:30.340Z,62.49
2018-08-09T17:01:58.763Z,63.18
2018-08-09T17:04:27.249Z,60.41
2018-08-09T17:06:55.709Z,58.67
2018-08-09T17:09:24.208Z,56.30
2018-08-09T17:11:52.636Z,55.81
2018-08-09T17:14:21.079Z,55.87
2018-08-09T17:16:49.505Z,57.55
2018-08-09T17:19:17.964Z,59.16
2018-08-09T17:21:46.424Z,60.50
2018-08-09T17:24:14.897Z,60.73
2018-08-09T17:26:43.386Z,60.79
2018-08-09T17:29:11.814Z,62.08
2018-08-09T17:31:40.284Z,62.46
2018-08-09T17:34:08.775Z,61.96
2018-08-09T17:36:37.231Z,61.87
2018-08-09T17:39:09.580Z,59.29
2018-08-09T17:41:38.209Z,56.92
2018-08-09T17:44:08.047Z,55.39
2018-08-09T17:46:36.534Z,54.32
2018-08-09T17:49:05.719Z,55.08
2018-08-09T17:51:34.217Z,54.14
2018-08-09T17:54:02.669Z,57.13
2018-08-09T17:56:31.270Z,60.13
2018-08-09T17:58:59.850Z,64.53
2018-08-09T18:01:28.423Z,65.79
2018-08-09T18:03:56.803Z,68.09
2018-08-09T18:06:25.256Z,68.92
2018-08-09T18:08:53.769Z,69.34
2018-08-09T18:11:22.159Z,69.49
2018-08-09T18:13:50.597Z,69.64
2018-08-09T18:16:19.076Z,70.24
2018-08-09T18:18:47.581Z,69.34
2018-08-09T18:21:16.066Z,70.55
2018-08-09T18:23:44.522Z,69.26
2018-08-09T18:26:12.947Z,69.36
2018-08-09T18:28:41.368Z,69.38
2018-08-09T18:31:09.909Z,69.17
2018-08-09T18:33:39.024Z,69.69
2018-08-09T18:36:07.536Z,69.18
2018-08-09T18:38:36.012Z,69.18
2018-08-09T18:41:05.064Z,68.97
2018-08-09T18:43:33.619Z,69.03
2018-08-09T18:46:02.169Z,68.11
2018-08-09T18:48:30.572Z,68.54
2018-08-09T18:50:59.109Z,67.83
2018-08-09T18:53:27.544Z,68.15
2018-08-09T18:55:56.036Z,67.57
2018-08-09T18:58:24.439Z,67.28
2018-08-09T19:00:52.844Z,67.61
2018-08-09T19:03:21.301Z,67.33
2018-08-09T19:05:49.984Z,67.05
2018-08-09T19:08:18.534Z,66.21
2018-08-09T19:10:47.052Z,66.60
2018-08-09T19:13:15.545Z,66.99
2018-08-09T19:15:43.971Z,64.84
2018-08-09T19:18:12.441Z,66.73
2018-08-09T19:20:40.888Z,65.37
2018-08-09T19:23:09.399Z,64.10
2018-08-09T19:25:37.896Z,65.35
2018-08-09T19:28:06.378Z,64.28
2018-08-09T19:30:34.891Z,64.32
2018-08-09T19:33:03.402Z,64.33
2018-08-09T19:35:31.852Z,63.70
2018-08-09T19:38:00.997Z,63.54
2018-08-09T19:40:30.451Z,64.45
2018-08-09T19:42:58.936Z,64.07
2018-08-09T19:45:27.531Z,63.30
2018-08-09T19:47:56.908Z,64.88
2018-08-09T19:50:25.760Z,63.41
2018-08-09T19:52:54.192Z,63.18
2018-08-09T19:55:25.331Z,63.42
2018-08-09T19:57:53.971Z,64.48
2018-08-09T20:00:24.283Z,64.46
2018-08-09T20:02:53.488Z,64.04
2018-08-09T20:05:22.126Z,63.87
2018-08-09T20:07:50.577Z,64.74
2018-08-09T20:10:19.755Z,64.00
2018-08-09T20:12:48.702Z,64.33
2018-08-09T20:15:19.704Z,63.84
2018-08-09T20:17:48.252Z,63.88
2018-08-09T20:20:18.163Z,64.76
2018-08-09T20:22:47.005Z,64.42
2018-08-09T20:25:16.424Z,65.56
2018-08-09T20:27:45.716Z,64.08
2018-08-09T20:30:16.077Z,63.86
2018-08-09T20:32:45.518Z,64.44
2018-08-09T20:35:15.540Z,63.99
2018-08-09T20:37:45.281Z,64.54
2018-08-09T20:40:14.224Z,64.09
2018-08-09T20:42:43.204Z,63.45
2018-08-09T20:45:14.096Z,63.37
2018-08-09T20:47:43.172Z,63.80
2018-08-09T20:50:14.438Z,64.03
2018-08-09T20:52:43.772Z,65.01
2018-08-09T20:55:12.315Z,64.26
2018-08-09T20:57:41.861Z,64.07
2018-08-09T21:00:13.984Z,64.61
2018-08-09T21:02:42.824Z,63.74
2018-08-09T21:05:16.666Z,63.78
2018-08-09T21:07:45.168Z,64.46
2018-08-09T21:10:14.466Z,64.61
2018-08-09T21:12:42.954Z,65.77
2018-08-09T21:15:11.399Z,65.47
2018-08-09T21:17:39.889Z,66.66
2018-08-09T21:20:08.399Z,66.36
2018-08-09T21:22:36.875Z,66.01
2018-08-09T21:25:07.310Z,66.21
2018-08-09T21:28:21.308Z,65.64
2018-08-09T21:30:49.731Z,65.79
2018-08-09T21:33:18.196Z,65.94
2018-08-09T21:35:46.657Z,66.09
2018-08-09T21:38:15.173Z,66.46
2018-08-09T21:40:43.584Z,66.04
2018-08-09T21:43:13.020Z,66.06
2018-08-09T21:45:41.467Z,66.71
2018-08-09T21:48:09.911Z,66.65
2018-08-09T21:50:38.411Z,66.05
2018-08-09T21:53:06.934Z,65.71
2018-08-09T21:55:35.440Z,66.12
2018-08-09T21:58:03.940Z,66.00
2018-08-09T22:00:55.968Z,66.12
2018-08-09T22:03:27.520Z,66.42
2018-08-09T22:06:01.262Z,67.08
2018-08-09T22:08:35.058Z,67.72
2018-08-09T22:11:08.977Z,67.81
2018-08-09T22:13:42.684Z,69.85
2018-08-09T22:16:16.883Z,69.90
2018-08-09T22:18:50.534Z,72.25
2018-08-09T22:21:24.352Z,72.41
2018-08-09T22:23:52.822Z,71.25
2018-08-09T22:26:21.346Z,71.75
2018-08-09T22:28:49.814Z,71.50
2018-08-09T22:31:18.257Z,71.25
2018-08-09T22:33:47.205Z,71.48
2018-08-09T22:36:15.782Z,72.28
2018-08-09T22:38:44.518Z,71.94
2018-08-09T22:41:13.012Z,71.97
2018-08-09T22:43:41.473Z,70.97
2018-08-09T22:46:09.960Z,71.22
2018-08-09T22:48:38.421Z,71.62
2018-08-09T22:51:07.114Z,72.37
2018-08-09T22:53:35.528Z,72.51
2018-08-09T22:56:04.031Z,72.32
2018-08-09T22:58:32.856Z,73.48
2018-08-09T23:01:01.337Z,72.78
2018-08-09T23:03:29.758Z,72.97
2018-08-09T23:05:58.286Z,72.69
2018-08-09T23:08:27.713Z,72.65
2018-08-09T23:10:56.172Z,72.40
2018-08-09T23:13:24.648Z,72.84
2018-08-09T23:15:53.063Z,72.02
2018-08-09T23:18:21.502Z,72.42
2018-08-09T23:20:49.920Z,71.75
2018-08-09T23:23:18.312Z,72.81
2018-08-09T23:25:46.762Z,73.83
2018-08-09T23:28:15.244Z,74.69
2018-08-09T23:30:43.714Z,74.79
2018-08-09T23:33:12.167Z,74.63
2018-08-09T23:35:40.579Z,74.69
2018-08-09T23:38:08.997Z,74.67
2018-08-09T23:40:37.455Z,74.45
2018-08-09T23:43:05.900Z,73.86
2018-08-09T23:45:34.326Z,74.42
2018-08-09T23:48:02.739Z,75.05
2018-08-09T23:50:31.461Z,73.81
2018-08-09T23:52:59.912Z,74.01
2018-08-09T23:55:28.432Z,75.03
2018-08-09T23:57:56.882Z,74.48
